createdAt,value
2023-05-20T00:00:11.486Z,7.07
2023-05-20T00:05:13.937Z,7.22
2023-05-20T00:10:16.196Z,7.80
2023-05-20T00:15:18.539Z,6.60
2023-05-20T00:20:21.391Z,6.50
2023-05-20T00:25:23.697Z,6.15
2023-05-20T00:30:26.103Z,6.38
2023-05-20T00:35:28.452Z,6.85
2023-05-20T00:40:30.802Z,7.22
2023-05-20T00:45:33.475Z,7.10
2023-05-20T00:50:36.314Z,6.70
2023-05-20T00:55:38.937Z,6.50
2023-05-20T01:00:41.679Z,7.22
2023-05-20T01:05:44.053Z,6.40
2023-05-20T01:10:50.007Z,7.18
2023-05-20T01:15:54.709Z,6.97
2023-05-20T01:21:02.066Z,6.72
2023-05-20T01:26:04.805Z,6.13
2023-05-20T01:31:18.960Z,6.30
2023-05-20T01:36:22.806Z,7.25
2023-05-20T01:41:27.463Z,6.53
2023-05-20T01:46:34.275Z,6.75
2023-05-20T01:51:37.543Z,5.70
2023-05-20T01:56:39.978Z,5.25
2023-05-20T02:01:42.389Z,5.13
2023-05-20T02:06:44.891Z,5.10
2023-05-20T02:11:47.278Z,6.07
2023-05-20T02:16:49.546Z,6.03
2023-05-20T02:21:54.110Z,5.20
2023-05-20T02:26:57.885Z,5.40
2023-05-20T02:32:00.331Z,5.97
2023-05-20T02:37:02.976Z,5.10
2023-05-20T02:42:05.508Z,5.75
2023-05-20T02:47:07.998Z,5.68
2023-05-20T02:52:10.283Z,5.05
2023-05-20T02:57:13.025Z,5.97
2023-05-20T03:02:15.356Z,5.07
2023-05-20T03:07:20.175Z,5.47
2023-05-20T03:12:22.524Z,5.22
2023-05-20T03:17:24.792Z,5.88
2023-05-20T03:22:27.157Z,6.35
2023-05-20T03:27:29.558Z,6.22
2023-05-20T03:32:31.990Z,5.50
2023-05-20T03:37:34.385Z,6.63
2023-05-20T03:42:40.436Z,5.55
2023-05-20T03:47:42.770Z,5.40
2023-05-20T03:52:45.644Z,5.22
2023-05-20T03:57:47.883Z,4.25
2023-05-20T04:02:50.232Z,4.95
2023-05-20T04:07:52.646Z,6.13
2023-05-20T04:12:54.949Z,5.22
2023-05-20T04:17:57.256Z,4.78
2023-05-20T04:23:00.102Z,5.10
2023-05-20T04:28:02.959Z,4.93
2023-05-20T04:33:05.291Z,5.28
2023-05-20T04:38:09.243Z,5.68
2023-05-20T04:43:11.513Z,5.93
2023-05-20T04:48:15.092Z,5.13
2023-05-20T04:53:18.005Z,5.25
2023-05-20T04:58:20.925Z,5.50
2023-05-20T05:03:23.255Z,5.90
2023-05-20T05:08:26.923Z,5.47
2023-05-20T05:13:29.322Z,5.43
2023-05-20T05:18:31.630Z,5.47
2023-05-20T05:23:34.141Z,6.40
2023-05-20T05:28:36.499Z,5.80
2023-05-20T05:33:38.856Z,6.15
2023-05-20T05:38:41.431Z,4.72
2023-05-20T05:43:43.748Z,5.80
2023-05-20T05:48:49.280Z,5.78
2023-05-20T05:53:51.593Z,5.15
2023-05-20T05:58:54.101Z,5.53
2023-05-20T06:03:56.686Z,5.47
2023-05-20T06:08:59.502Z,4.80
2023-05-20T06:14:03.111Z,4.97
2023-05-20T06:19:05.999Z,4.07
2023-05-20T06:24:08.725Z,5.30
2023-05-20T06:29:11.014Z,5.18
2023-05-20T06:34:13.473Z,4.55
2023-05-20T06:39:15.841Z,4.72
2023-05-20T06:44:19.300Z,4.35
2023-05-20T06:49:21.815Z,5.97
2023-05-20T06:54:24.210Z,4.43
2023-05-20T06:59:26.572Z,4.85
2023-05-20T07:04:28.958Z,5.10
2023-05-20T07:09:31.270Z,5.00
2023-05-20T07:14:33.641Z,4.72
2023-05-20T07:19:36.018Z,5.25
2023-05-20T07:24:39.107Z,4.65
2023-05-20T07:29:41.502Z,5.30
2023-05-20T07:34:44.176Z,5.78
2023-05-20T07:39:46.423Z,5.10
2023-05-20T07:44:48.648Z,5.00
2023-05-20T07:49:50.982Z,5.30
2023-05-20T07:54:53.300Z,5.40
2023-05-20T07:59:55.550Z,5.10
2023-05-20T08:04:57.756Z,5.07
2023-05-20T08:09:59.957Z,4.65
2023-05-20T08:15:02.540Z,5.05
2023-05-20T08:20:06.413Z,4.90
2023-05-20T08:25:09.721Z,5.53
2023-05-20T08:30:12.414Z,5.78
2023-05-20T08:35:14.746Z,6.47
2023-05-20T08:40:17.464Z,5.55
2023-05-20T08:45:28.276Z,5.28
2023-05-20T08:50:30.622Z,4.93
2023-05-20T08:55:43.875Z,5.00
2023-05-20T09:00:46.947Z,5.38
2023-05-20T09:05:49.641Z,5.07
2023-05-20T09:10:53.974Z,5.13
2023-05-20T09:15:56.305Z,4.82
2023-05-20T09:20:58.681Z,5.53
2023-05-20T09:26:04.964Z,5.05
2023-05-20T09:31:09.286Z,4.80
2023-05-20T09:36:12.590Z,5.13
2023-05-20T09:41:15.825Z,4.90
2023-05-20T09:46:19.456Z,4.80
2023-05-20T09:51:24.750Z,5.38
2023-05-20T09:56:29.005Z,4.75
2023-05-20T10:01:31.639Z,4.72
2023-05-20T10:06:39.746Z,4.88
2023-05-20T10:11:57.069Z,4.88
2023-05-20T10:17:16.561Z,4.80
2023-05-20T10:22:34.311Z,4.80
2023-05-20T10:27:47.032Z,4.50
2023-05-20T10:32:54.408Z,4.90
2023-05-20T10:38:10.119Z,5.88
2023-05-20T10:43:26.907Z,4.80
2023-05-20T10:48:32.122Z,4.90
2023-05-20T10:53:42.643Z,4.65
2023-05-20T10:58:45.686Z,4.60
2023-05-20T11:03:49.860Z,4.60
2023-05-20T11:08:52.426Z,4.28
2023-05-20T11:13:58.007Z,4.40
2023-05-20T11:19:00.308Z,4.82
2023-05-20T11:24:02.654Z,4.97
2023-05-20T11:29:05.310Z,4.57
2023-05-20T11:34:07.701Z,5.50
2023-05-20T11:39:15.224Z,5.28
2023-05-20T11:44:20.831Z,4.83
2023-05-20T11:49:23.339Z,4.80
2023-05-20T11:54:26.502Z,4.07
2023-05-20T11:59:28.834Z,4.40
2023-05-20T12:04:31.314Z,4.43
2023-05-20T12:09:33.666Z,4.57
2023-05-20T12:14:35.962Z,4.20
2023-05-20T12:19:39.773Z,4.03
2023-05-20T12:24:43.548Z,5.03
2023-05-20T12:29:45.835Z,4.43
2023-05-20T12:34:48.214Z,3.90
2023-05-20T12:39:50.578Z,3.95
2023-05-20T12:44:52.925Z,4.20
2023-05-20T12:49:55.255Z,3.80
2023-05-20T12:54:58.061Z,3.58
2023-05-20T13:00:00.339Z,4.05
2023-05-20T13:05:02.770Z,3.72
2023-05-20T13:10:05.997Z,4.45
2023-05-20T13:15:08.839Z,4.53
2023-05-20T13:20:12.446Z,3.67
2023-05-20T13:25:14.849Z,3.85
2023-05-20T13:30:17.413Z,4.15
2023-05-20T13:35:20.074Z,3.97
2023-05-20T13:40:23.046Z,3.90
2023-05-20T13:45:26.162Z,3.95
2023-05-20T13:50:28.528Z,3.55
2023-05-20T13:55:30.954Z,3.95
2023-05-20T14:00:33.518Z,4.38
2023-05-20T14:05:36.437Z,3.92
2023-05-20T14:10:38.909Z,3.92
2023-05-20T14:15:41.670Z,4.13
2023-05-20T14:20:44.651Z,3.67
2023-05-20T14:25:47.095Z,3.45
2023-05-20T14:30:49.515Z,3.83
2023-05-20T14:35:51.905Z,3.80
2023-05-20T14:40:54.494Z,4.18
2023-05-20T14:45:57.059Z,3.25
2023-05-20T14:50:59.426Z,3.72
2023-05-20T14:56:01.877Z,3.78
2023-05-20T15:01:04.540Z,4.03
2023-05-20T15:06:07.021Z,3.80
2023-05-20T15:11:10.431Z,4.28
2023-05-20T15:16:13.887Z,3.78
2023-05-20T15:21:16.218Z,3.80
2023-05-20T15:26:18.619Z,5.32
2023-05-20T15:31:21.238Z,4.13
2023-05-20T15:36:23.673Z,4.25
2023-05-20T15:41:26.731Z,4.05
2023-05-20T15:46:29.180Z,4.07
2023-05-20T15:51:31.836Z,4.13
2023-05-20T15:56:34.358Z,4.20
2023-05-20T16:01:37.999Z,3.95
2023-05-20T16:06:42.432Z,4.30
2023-05-20T16:11:44.923Z,4.20
2023-05-20T16:16:47.242Z,4.28
2023-05-20T16:21:49.607Z,3.88
2023-05-20T16:26:52.428Z,3.95
2023-05-20T16:31:54.827Z,3.85
2023-05-20T16:36:57.226Z,4.07
2023-05-20T16:41:59.890Z,3.78
2023-05-20T16:47:02.518Z,3.75
2023-05-20T16:52:05.288Z,4.00
2023-05-20T16:57:08.697Z,4.05
2023-05-20T17:02:11.113Z,4.10
2023-05-20T17:07:14.067Z,4.35
2023-05-20T17:12:16.993Z,4.35
2023-05-20T17:17:19.362Z,4.32
2023-05-20T17:22:21.847Z,4.68
2023-05-20T17:27:24.387Z,4.63
2023-05-20T17:32:26.805Z,4.65
2023-05-20T17:37:29.852Z,5.03
2023-05-20T17:42:32.791Z,4.90
2023-05-20T17:47:35.148Z,4.05
2023-05-20T17:52:37.636Z,4.72
2023-05-20T17:57:40.033Z,4.72
2023-05-20T18:02:47.733Z,4.47
2023-05-20T18:07:50.109Z,4.55
2023-05-20T18:12:52.428Z,5.20
2023-05-20T18:17:56.863Z,4.95
2023-05-20T18:22:59.217Z,4.72
2023-05-20T18:28:02.160Z,4.50
2023-05-20T18:33:04.602Z,5.78
2023-05-20T18:38:07.536Z,6.57
2023-05-20T18:43:09.848Z,7.07
2023-05-20T18:48:15.824Z,5.80
2023-05-20T18:53:22.962Z,7.95
2023-05-20T18:58:25.164Z,6.25
2023-05-20T19:03:27.543Z,6.40
2023-05-20T19:08:29.747Z,6.07
2023-05-20T19:13:32.145Z,6.15
2023-05-20T19:18:34.465Z,6.53
2023-05-20T19:23:37.010Z,6.65
2023-05-20T19:28:39.682Z,6.35
2023-05-20T19:33:41.936Z,4.93
2023-05-20T19:38:44.794Z,6.00
2023-05-20T19:43:47.255Z,7.82
2023-05-20T19:48:49.712Z,7.25
2023-05-20T19:53:52.104Z,8.48
2023-05-20T19:58:54.480Z,7.20
2023-05-20T20:03:56.859Z,5.97
2023-05-20T20:08:59.380Z,5.15
2023-05-20T20:14:01.827Z,5.57
2023-05-20T20:19:05.515Z,4.93
2023-05-20T20:24:07.757Z,4.65
2023-05-20T20:29:10.212Z,5.35
2023-05-20T20:34:12.681Z,7.32
2023-05-20T20:39:19.452Z,9.13
2023-05-20T20:44:22.903Z,6.03
2023-05-20T20:49:26.901Z,5.95
2023-05-20T20:54:30.635Z,6.25
2023-05-20T20:59:33.076Z,5.55
2023-05-20T21:04:35.459Z,6.10
2023-05-20T21:09:38.315Z,5.50
2023-05-20T21:14:40.691Z,7.63
2023-05-20T21:19:42.962Z,6.72
2023-05-20T21:24:45.264Z,5.82
2023-05-20T21:29:48.902Z,5.15
2023-05-20T21:34:51.538Z,5.78
2023-05-20T21:39:53.927Z,5.13
2023-05-20T21:44:56.446Z,5.60
2023-05-20T21:49:58.827Z,5.65
2023-05-20T21:55:01.134Z,5.60
2023-05-20T22:00:11.538Z,4.97
2023-05-20T22:05:13.987Z,5.90
2023-05-20T22:10:23.335Z,5.72
2023-05-20T22:15:26.625Z,5.53
2023-05-20T22:20:29.128Z,5.55
2023-05-20T22:25:32.043Z,5.35
2023-05-20T22:30:34.801Z,4.85
2023-05-20T22:35:37.174Z,5.60
2023-05-20T22:40:39.864Z,5.80
2023-05-20T22:45:42.136Z,5.22
2023-05-20T22:50:44.399Z,5.85
2023-05-20T22:55:46.740Z,6.05
2023-05-20T23:00:49.288Z,5.80
2023-05-20T23:05:51.604Z,6.38
2023-05-20T23:10:53.978Z,7.35
2023-05-20T23:15:56.249Z,6.10
2023-05-20T23:20:58.635Z,6.03
2023-05-20T23:26:01.992Z,5.65
2023-05-20T23:31:04.394Z,6.07
2023-05-20T23:36:09.757Z,6.10
2023-05-20T23:41:12.193Z,5.40
2023-05-20T23:46:14.716Z,5.50
2023-05-20T23:51:17.082Z,6.15
2023-05-20T23:56:19.320Z,6.20
